createdAt,value
2022-11-15T00:02:13.690Z,1.92
2022-11-15T00:05:03.591Z,2.05
2022-11-15T00:07:56.384Z,3.38
2022-11-15T00:10:45.618Z,2.20
2022-11-15T00:13:34.781Z,2.22
2022-11-15T00:16:24.212Z,4.05
2022-11-15T00:19:13.427Z,2.75
2022-11-15T00:22:02.906Z,4.28
2022-11-15T00:24:52.222Z,2.38
2022-11-15T00:27:42.295Z,3.88
2022-11-15T00:30:31.626Z,4.97
2022-11-15T00:33:20.860Z,3.28
2022-11-15T00:36:13.031Z,4.90
2022-11-15T00:39:02.020Z,3.35
2022-11-15T00:41:50.706Z,1.98
2022-11-15T00:44:39.575Z,4.40
2022-11-15T00:47:28.046Z,4.15
2022-11-15T00:50:17.100Z,3.70
2022-11-15T00:53:05.752Z,4.38
2022-11-15T00:55:54.940Z,4.45
2022-11-15T00:58:44.021Z,5.65
2022-11-15T01:01:33.209Z,5.18
2022-11-15T01:04:22.481Z,4.85
2022-11-15T01:07:11.962Z,4.60
2022-11-15T01:10:00.801Z,5.78
2022-11-15T01:12:50.121Z,4.07
2022-11-15T01:15:43.197Z,4.07
2022-11-15T01:18:31.927Z,5.95
2022-11-15T01:21:22.592Z,4.25
2022-11-15T01:24:13.857Z,4.03
2022-11-15T01:27:02.964Z,6.32
2022-11-15T01:29:51.836Z,4.35
2022-11-15T01:32:41.342Z,5.07
2022-11-15T01:35:30.385Z,3.92
2022-11-15T01:38:19.378Z,3.22
2022-11-15T01:41:15.077Z,2.97
2022-11-15T01:44:48.744Z,2.47
2022-11-15T01:47:43.801Z,1.73
2022-11-15T01:50:34.240Z,1.60
2022-11-15T01:53:24.837Z,2.60
2022-11-15T01:56:17.863Z,4.05
2022-11-15T01:59:09.432Z,3.20
2022-11-15T02:01:58.368Z,2.63
2022-11-15T02:04:49.405Z,2.58
2022-11-15T02:07:39.705Z,2.08
2022-11-15T02:10:29.129Z,1.60
2022-11-15T02:13:18.888Z,2.00
2022-11-15T02:16:46.252Z,2.08
2022-11-15T02:19:52.625Z,3.42
2022-11-15T02:23:01.047Z,3.25
2022-11-15T02:26:01.879Z,3.53
2022-11-15T02:29:11.228Z,2.50
2022-11-15T02:32:18.222Z,2.10
2022-11-15T02:35:31.846Z,3.75
2022-11-15T02:38:52.603Z,3.63
2022-11-15T02:41:56.885Z,3.15
2022-11-15T02:44:49.196Z,4.65
2022-11-15T02:47:44.842Z,3.28
2022-11-15T02:50:35.497Z,3.55
2022-11-15T02:53:29.655Z,3.35
2022-11-15T02:56:19.329Z,3.00
2022-11-15T02:59:32.779Z,3.60
2022-11-15T03:03:00.672Z,4.97
2022-11-15T03:06:08.231Z,3.70
2022-11-15T03:09:48.958Z,4.63
2022-11-15T03:12:47.322Z,2.78
2022-11-15T03:15:43.671Z,4.22
2022-11-15T03:18:39.012Z,3.42
2022-11-15T03:21:28.492Z,4.38
2022-11-15T03:24:20.877Z,3.67
2022-11-15T03:27:16.042Z,3.80
2022-11-15T03:30:08.776Z,4.22
2022-11-15T03:33:01.640Z,4.60
2022-11-15T03:35:51.283Z,6.10
2022-11-15T03:38:42.089Z,5.55
2022-11-15T03:42:07.142Z,6.38
2022-11-15T03:45:06.156Z,6.00
2022-11-15T03:48:19.343Z,5.25
2022-11-15T03:51:08.631Z,5.15
2022-11-15T03:53:57.919Z,5.70
2022-11-15T03:56:47.067Z,6.20
2022-11-15T03:59:35.948Z,5.72
2022-11-15T04:02:24.690Z,5.85
2022-11-15T04:05:14.105Z,7.30
2022-11-15T04:08:03.459Z,6.68
2022-11-15T04:10:53.102Z,6.38
2022-11-15T04:13:41.858Z,6.72
2022-11-15T04:16:30.933Z,7.88
2022-11-15T04:19:38.261Z,7.75
2022-11-15T04:22:45.055Z,6.10
2022-11-15T04:25:33.812Z,6.70
2022-11-15T04:28:23.369Z,6.18
2022-11-15T04:31:12.454Z,6.10
2022-11-15T04:34:01.628Z,7.43
2022-11-15T04:37:08.148Z,6.90
2022-11-15T04:39:56.996Z,6.75
2022-11-15T04:42:46.025Z,11.13
2022-11-15T04:45:35.467Z,7.95
2022-11-15T04:48:24.638Z,6.80
2022-11-15T04:51:14.057Z,7.30
2022-11-15T04:54:03.211Z,7.82
2022-11-15T04:56:52.701Z,7.75
2022-11-15T04:59:41.389Z,9.45
2022-11-15T05:02:50.027Z,7.40
2022-11-15T05:05:39.278Z,8.20
2022-11-15T05:08:29.033Z,6.78
2022-11-15T05:11:19.290Z,7.50
2022-11-15T05:14:08.274Z,7.63
2022-11-15T05:16:57.398Z,8.05
2022-11-15T05:19:47.152Z,7.57
2022-11-15T05:22:35.822Z,6.63
2022-11-15T05:25:25.360Z,6.45
2022-11-15T05:28:14.904Z,6.28
2022-11-15T05:31:13.206Z,6.05
2022-11-15T05:34:07.986Z,6.32
2022-11-15T05:36:57.254Z,6.55
2022-11-15T05:39:46.338Z,5.82
2022-11-15T05:42:35.112Z,5.00
2022-11-15T05:45:26.940Z,5.07
2022-11-15T05:48:16.876Z,5.57
2022-11-15T05:51:06.878Z,5.03
2022-11-15T05:53:56.073Z,3.67
2022-11-15T05:56:44.871Z,3.45
2022-11-15T05:59:35.285Z,3.60
2022-11-15T06:02:24.374Z,4.65
2022-11-15T06:05:13.155Z,4.20
2022-11-15T06:08:02.244Z,4.35
2022-11-15T06:10:51.441Z,5.53
2022-11-15T06:13:41.169Z,4.10
2022-11-15T06:16:30.111Z,4.60
2022-11-15T06:19:19.239Z,4.60
2022-11-15T06:22:08.191Z,8.45
2022-11-15T06:25:00.184Z,9.18
2022-11-15T06:28:01.413Z,5.65
2022-11-15T06:30:53.243Z,6.35
2022-11-15T06:33:42.453Z,7.47
2022-11-15T06:36:31.667Z,7.00
2022-11-15T06:39:20.636Z,5.50
2022-11-15T06:42:11.102Z,5.22
2022-11-15T06:44:59.730Z,6.93
2022-11-15T06:47:49.631Z,5.63
2022-11-15T06:50:38.734Z,4.72
2022-11-15T06:53:29.006Z,4.40
2022-11-15T06:56:18.489Z,5.70
2022-11-15T06:59:08.330Z,5.78
2022-11-15T07:01:57.449Z,6.38
2022-11-15T07:04:46.680Z,5.47
2022-11-15T07:07:36.125Z,5.55
2022-11-15T07:10:27.043Z,4.53
2022-11-15T07:13:16.074Z,4.85
2022-11-15T07:18:57.172Z,5.53
2022-11-15T07:21:46.859Z,7.47
2022-11-15T07:24:36.246Z,6.10
2022-11-15T07:27:25.239Z,6.85
2022-11-15T07:30:15.757Z,5.03
2022-11-15T07:33:05.283Z,6.63
2022-11-15T07:35:54.132Z,8.60
2022-11-15T07:38:43.216Z,7.45
2022-11-15T07:41:32.757Z,5.43
2022-11-15T07:44:21.806Z,5.53
2022-11-15T07:47:10.821Z,5.47
2022-11-15T07:50:00.093Z,5.32
2022-11-15T07:52:49.758Z,5.07
2022-11-15T07:55:39.374Z,5.18
2022-11-15T07:58:28.308Z,9.23
2022-11-15T08:01:17.113Z,5.70
2022-11-15T08:04:06.445Z,6.32
2022-11-15T08:06:55.791Z,7.78
2022-11-15T08:09:45.170Z,5.28
2022-11-15T08:12:35.131Z,5.57
2022-11-15T08:15:24.046Z,7.95
2022-11-15T08:18:16.962Z,4.70
2022-11-15T08:21:06.368Z,5.47
2022-11-15T08:23:54.973Z,7.80
2022-11-15T08:26:44.089Z,8.88
2022-11-15T08:29:33.219Z,9.13
2022-11-15T08:32:22.585Z,8.40
2022-11-15T08:35:11.623Z,8.02
2022-11-15T08:38:00.188Z,8.02
2022-11-15T08:40:50.100Z,7.78
2022-11-15T08:43:39.771Z,7.53
2022-11-15T08:46:28.843Z,7.43
2022-11-15T08:49:17.655Z,9.40
2022-11-15T08:52:06.540Z,8.90
2022-11-15T08:54:55.813Z,9.70
2022-11-15T08:57:44.733Z,7.43
2022-11-15T09:00:33.712Z,6.22
2022-11-15T09:03:22.534Z,6.90
2022-11-15T09:06:12.665Z,9.57
2022-11-15T09:09:03.126Z,7.20
2022-11-15T09:11:55.741Z,10.02
2022-11-15T09:14:47.576Z,7.95
2022-11-15T09:17:36.467Z,6.97
2022-11-15T09:20:48.601Z,12.73
2022-11-15T09:24:29.613Z,9.07
2022-11-15T09:28:13.589Z,11.90
2022-11-15T09:31:54.579Z,11.27
2022-11-15T09:35:36.617Z,13.02
2022-11-15T09:39:18.583Z,12.82
2022-11-15T09:43:18.665Z,10.38
2022-11-15T09:47:04.570Z,12.80
2022-11-15T09:51:09.620Z,12.88
2022-11-15T09:55:03.696Z,13.68
2022-11-15T09:58:40.599Z,8.27
2022-11-15T10:02:35.687Z,7.85
2022-11-15T10:06:03.662Z,9.02
2022-11-15T10:09:54.766Z,7.78
